Etusivu
METAR-TAF:

METAR-TAF

Lentoasemat :

Boscobel Airport

Boscobel, Wisconsin, Yhdysvallat

Leveyspiiri: 43-09-22N, Pituuspiiri: 090-40-39W, korkeus merenpinnasta: 205 m

Tämänhetkinen sää

Tämä raportti tehtiin 17 minuuttia sitten, kello 03.17 UTC
tyyntä
Lämpötila 1°C
Kosteus 80%
Ilmanpaine 1007 hPa
Näkyvyys: 16.1 km
Hajonneita pilviä 1700 ft:n korkeudessa
Pilvistä 9500 ft:n korkeudessa

METAR: KOVS 190317Z AUTO 00000KT 10SM BKN017 OVC095 01/M02 A2975 RMK AO2 T00061017

Aika: 21:34 (03:34 UTC)


TAF: puuttuu

Säähavainnot ja -ennusteet yli 4000 lentoasemalta (METAR- ja TAF-raportit).

Käytössä olevat sääasemat on merkitty karttaan keltaisilla ja punaisilla pisteillä.

Aseta hiiri pisteen päälle nähdäksesi sääaseman nimen.

Klikkaa sitten nähdäksesi säähavainnot ja -ennusteet.

Kartan vaihtaminen: klikkaa mustalla rastilla varustettuja vihreitä pisteitä, niin voit zoomata sisään; viivalla varustettua vihreää pistettä, niin voit zoomata ulos tai vihreitä nuolia, niin pääset viereisille kartoille.


METAR-TAF: